createdAt,value
2023-06-30T00:00:48.805Z,97679.00
2023-06-30T00:03:25.382Z,97672.00
2023-06-30T00:06:01.545Z,97683.00
2023-06-30T00:08:37.568Z,97678.00
2023-06-30T00:11:13.555Z,97674.00
2023-06-30T00:13:49.499Z,97683.00
2023-06-30T00:16:25.510Z,97670.00
2023-06-30T00:19:03.009Z,97667.00
2023-06-30T00:21:43.352Z,97663.00
2023-06-30T00:24:20.272Z,97665.00
2023-06-30T00:26:56.329Z,97656.00
2023-06-30T00:29:32.276Z,97654.00
2023-06-30T00:32:08.441Z,97651.00
2023-06-30T00:34:44.627Z,97639.00
2023-06-30T00:37:20.588Z,97637.00
2023-06-30T00:39:56.904Z,97632.00
2023-06-30T00:42:34.207Z,97627.00
2023-06-30T00:45:10.868Z,97626.00
2023-06-30T00:47:47.248Z,97624.00
2023-06-30T00:50:24.750Z,97624.00
2023-06-30T00:53:01.474Z,97620.00
2023-06-30T00:55:37.456Z,97615.00
2023-06-30T00:58:13.405Z,97617.00
2023-06-30T01:00:50.285Z,97610.00
2023-06-30T01:03:42.840Z,97615.00
2023-06-30T01:06:32.483Z,97609.00
2023-06-30T01:09:20.656Z,97610.00
2023-06-30T01:11:57.308Z,97612.00
2023-06-30T01:14:35.978Z,97607.00
2023-06-30T01:17:12.492Z,97596.00
2023-06-30T01:19:51.001Z,97593.00
2023-06-30T01:22:52.797Z,97596.00
2023-06-30T01:25:30.673Z,97596.00
2023-06-30T01:28:08.884Z,97597.00
2023-06-30T01:30:46.198Z,97592.00
2023-06-30T01:33:24.863Z,97601.00
2023-06-30T01:36:01.132Z,97602.00
2023-06-30T01:38:38.428Z,97597.00
2023-06-30T01:41:14.755Z,97602.00
2023-06-30T01:43:51.791Z,97602.00
2023-06-30T01:46:27.831Z,97599.00
2023-06-30T01:49:06.202Z,97586.00
2023-06-30T01:51:42.169Z,97583.00
2023-06-30T01:54:18.112Z,97582.00
2023-06-30T01:56:54.070Z,97586.00
2023-06-30T01:59:30.056Z,97585.00
2023-06-30T02:02:06.207Z,97579.00
2023-06-30T02:04:42.219Z,97579.00
2023-06-30T02:07:18.398Z,97575.00
2023-06-30T02:09:54.452Z,97576.00
2023-06-30T02:12:30.501Z,97571.00
2023-06-30T02:15:07.570Z,97578.00
2023-06-30T02:17:43.626Z,97579.00
2023-06-30T02:20:19.581Z,97578.00
2023-06-30T02:22:55.630Z,97572.00
2023-06-30T02:25:31.581Z,97575.00
2023-06-30T02:28:07.703Z,97581.00
2023-06-30T02:30:44.242Z,97584.00
2023-06-30T02:33:20.185Z,97582.00
2023-06-30T02:35:56.092Z,97585.00
2023-06-30T02:38:32.974Z,97577.00
2023-06-30T02:41:08.925Z,97583.00
2023-06-30T02:43:44.906Z,97586.00
2023-06-30T02:46:21.424Z,97589.00
2023-06-30T02:48:57.563Z,97592.00
2023-06-30T02:51:33.519Z,97592.00
2023-06-30T02:54:09.621Z,97585.00
2023-06-30T02:56:46.026Z,97583.00
2023-06-30T02:59:22.587Z,97571.00
2023-06-30T03:02:00.146Z,97589.00
2023-06-30T03:04:36.254Z,97581.00
2023-06-30T03:07:12.691Z,97580.00
2023-06-30T03:09:51.681Z,97576.00
2023-06-30T03:12:27.763Z,97579.00
2023-06-30T03:15:05.335Z,97567.00
2023-06-30T03:17:43.397Z,97560.00
2023-06-30T03:20:19.588Z,97561.00
2023-06-30T03:22:55.583Z,97557.00
2023-06-30T03:25:31.525Z,97551.00
2023-06-30T03:28:07.767Z,97543.00
2023-06-30T03:30:44.213Z,97546.00
2023-06-30T03:33:23.154Z,97537.00
2023-06-30T03:35:59.955Z,97543.00
2023-06-30T03:38:35.942Z,97544.00
2023-06-30T03:41:11.978Z,97543.00
2023-06-30T03:43:48.116Z,97540.00
2023-06-30T03:46:24.251Z,97548.00
2023-06-30T03:49:00.978Z,97540.00
2023-06-30T03:51:37.503Z,97535.00
2023-06-30T03:54:13.496Z,97537.00
2023-06-30T03:56:49.663Z,97540.00
2023-06-30T03:59:25.658Z,97550.00
2023-06-30T04:02:01.691Z,97550.00
2023-06-30T04:04:37.789Z,97552.00
2023-06-30T04:07:13.884Z,97551.00
2023-06-30T04:09:49.870Z,97558.00
2023-06-30T04:12:25.847Z,97552.00
2023-06-30T04:15:01.946Z,97557.00
2023-06-30T04:17:38.852Z,97553.00
2023-06-30T04:20:16.892Z,97554.00
2023-06-30T04:22:53.931Z,97551.00
2023-06-30T04:25:30.041Z,97547.00
2023-06-30T04:28:05.986Z,97546.00
2023-06-30T04:30:42.008Z,97547.00
2023-06-30T04:33:17.954Z,97551.00
2023-06-30T04:35:53.954Z,97553.00
2023-06-30T04:38:31.146Z,97551.00
2023-06-30T04:41:07.116Z,97560.00
2023-06-30T04:43:45.118Z,97564.00
2023-06-30T04:46:21.515Z,97561.00
2023-06-30T04:48:57.618Z,97553.00
2023-06-30T04:51:33.587Z,97552.00
2023-06-30T04:54:09.588Z,97552.00
2023-06-30T04:56:45.559Z,97549.00
2023-06-30T04:59:25.230Z,97554.00
2023-06-30T05:02:03.348Z,97556.00
2023-06-30T05:04:39.910Z,97557.00
2023-06-30T05:07:15.966Z,97558.00
2023-06-30T05:09:52.073Z,97562.00
2023-06-30T05:12:28.082Z,97561.00
2023-06-30T05:15:04.572Z,97562.00
2023-06-30T05:17:40.654Z,97559.00
2023-06-30T05:20:16.735Z,97566.00
2023-06-30T05:22:52.732Z,97561.00
2023-06-30T05:25:28.780Z,97563.00
2023-06-30T05:28:04.985Z,97565.00
2023-06-30T05:30:41.529Z,97582.00
2023-06-30T05:33:17.522Z,97581.00
2023-06-30T05:35:53.540Z,97578.00
2023-06-30T05:38:29.983Z,97571.00
2023-06-30T05:41:05.970Z,97581.00
2023-06-30T05:43:42.056Z,97574.00
2023-06-30T05:46:18.071Z,97577.00
2023-06-30T05:48:54.145Z,97581.00
2023-06-30T05:51:30.194Z,97585.00
2023-06-30T05:54:07.028Z,97600.00
2023-06-30T05:56:43.038Z,97594.00
2023-06-30T05:59:18.983Z,97593.00
2023-06-30T06:01:56.215Z,97612.00
2023-06-30T06:04:32.333Z,97602.00
2023-06-30T06:07:08.896Z,97600.00
2023-06-30T06:09:44.855Z,97620.00
2023-06-30T06:12:20.954Z,97611.00
2023-06-30T06:14:56.938Z,97604.00
2023-06-30T06:17:33.609Z,97606.00
2023-06-30T06:20:10.305Z,97613.00
2023-06-30T06:22:46.281Z,97617.00
2023-06-30T06:25:22.198Z,97611.00
2023-06-30T06:27:58.298Z,97617.00
2023-06-30T06:30:34.264Z,97627.00
2023-06-30T06:33:10.221Z,97620.00
2023-06-30T06:35:46.455Z,97623.00
2023-06-30T06:38:22.608Z,97624.00
2023-06-30T06:40:58.607Z,97617.00
2023-06-30T06:43:34.649Z,97618.00
2023-06-30T06:46:10.603Z,97619.00
2023-06-30T06:48:46.654Z,97620.00
2023-06-30T06:51:22.764Z,97632.00
2023-06-30T06:53:58.819Z,97629.00
2023-06-30T06:56:35.091Z,97636.00
2023-06-30T06:59:11.009Z,97635.00
2023-06-30T07:01:46.987Z,97631.00
2023-06-30T07:04:23.068Z,97641.00
2023-06-30T07:06:59.118Z,97639.00
2023-06-30T07:09:35.135Z,97631.00
2023-06-30T07:12:11.432Z,97637.00
2023-06-30T07:14:48.681Z,97632.00
2023-06-30T07:17:26.285Z,97635.00
2023-06-30T07:20:02.311Z,97635.00
2023-06-30T07:22:38.273Z,97632.00
2023-06-30T07:25:14.789Z,97625.00
2023-06-30T07:27:56.405Z,97632.00
2023-06-30T07:30:32.362Z,97637.00
2023-06-30T07:33:08.365Z,97646.00
2023-06-30T07:35:44.637Z,97651.00
2023-06-30T07:38:20.791Z,97656.00
2023-06-30T07:40:57.715Z,97656.00
2023-06-30T07:43:34.925Z,97668.00
2023-06-30T07:46:10.914Z,97680.00
2023-06-30T07:48:46.933Z,97679.00
2023-06-30T07:51:23.019Z,97685.00
2023-06-30T07:53:58.969Z,97685.00
2023-06-30T07:56:35.282Z,97694.00
2023-06-30T07:59:11.211Z,97684.00
2023-06-30T08:01:47.124Z,97689.00
2023-06-30T08:04:23.375Z,97693.00
2023-06-30T08:06:59.466Z,97704.00
2023-06-30T08:09:35.437Z,97698.00
2023-06-30T08:12:11.548Z,97694.00
2023-06-30T08:14:49.574Z,97701.00
2023-06-30T08:17:31.220Z,97710.00
2023-06-30T08:20:19.063Z,97698.00
2023-06-30T08:22:55.905Z,97707.00
2023-06-30T08:25:32.052Z,97711.00
2023-06-30T08:28:08.022Z,97713.00
2023-06-30T08:30:44.018Z,97717.00
2023-06-30T08:33:35.125Z,97707.00
2023-06-30T08:36:16.150Z,97713.00
2023-06-30T08:38:52.107Z,97709.00
2023-06-30T08:41:29.268Z,97722.00
2023-06-30T08:44:06.439Z,97718.00
2023-06-30T08:46:43.490Z,97717.00
2023-06-30T08:49:25.631Z,97717.00
2023-06-30T08:52:01.878Z,97713.00
2023-06-30T08:54:38.516Z,97717.00
2023-06-30T08:57:16.649Z,97718.00
2023-06-30T08:59:52.567Z,97706.00
2023-06-30T09:02:29.682Z,97710.00
2023-06-30T09:05:08.455Z,97704.00
2023-06-30T09:07:57.215Z,97696.00
2023-06-30T09:10:38.443Z,97698.00
2023-06-30T09:13:21.531Z,97693.00
2023-06-30T09:15:59.974Z,97701.00
2023-06-30T09:18:36.006Z,97702.00
2023-06-30T09:21:12.442Z,97698.00
2023-06-30T09:23:48.388Z,97692.00
2023-06-30T09:26:24.411Z,97697.00
2023-06-30T09:29:01.618Z,97688.00
2023-06-30T09:31:38.102Z,97686.00
2023-06-30T09:34:15.340Z,97691.00
2023-06-30T09:36:54.197Z,97687.00
2023-06-30T09:39:30.204Z,97691.00
2023-06-30T09:42:17.169Z,97691.00
2023-06-30T09:44:54.433Z,97688.00
2023-06-30T09:47:30.465Z,97692.00
2023-06-30T09:50:07.279Z,97682.00
2023-06-30T09:52:43.235Z,97687.00
2023-06-30T09:55:19.184Z,97691.00
2023-06-30T09:57:57.352Z,97687.00
2023-06-30T10:00:36.765Z,97687.00
2023-06-30T10:03:18.249Z,97685.00
2023-06-30T10:05:54.997Z,97686.00
2023-06-30T10:08:32.026Z,97683.00
2023-06-30T10:11:09.306Z,97687.00
2023-06-30T10:13:46.640Z,97692.00
2023-06-30T10:16:23.620Z,97693.00
2023-06-30T10:19:02.740Z,97692.00
2023-06-30T10:21:38.699Z,97688.00
2023-06-30T10:24:15.501Z,97690.00
2023-06-30T10:26:52.861Z,97689.00
2023-06-30T10:29:31.096Z,97688.00
2023-06-30T10:32:07.717Z,97696.00
2023-06-30T10:34:44.160Z,97698.00
2023-06-30T10:37:21.042Z,97697.00
2023-06-30T10:39:56.970Z,97697.00
2023-06-30T10:42:38.347Z,97692.00
2023-06-30T10:45:14.351Z,97689.00
2023-06-30T10:47:54.235Z,97690.00
2023-06-30T10:50:42.607Z,97689.00
2023-06-30T10:53:19.726Z,97686.00
2023-06-30T10:55:58.800Z,97688.00
2023-06-30T10:58:42.295Z,97685.00
2023-06-30T11:01:19.367Z,97697.00
2023-06-30T11:03:58.323Z,97703.00
2023-06-30T11:06:37.541Z,97705.00
2023-06-30T11:09:13.511Z,97707.00
2023-06-30T11:11:51.675Z,97716.00
2023-06-30T11:14:35.434Z,97701.00
2023-06-30T11:17:12.819Z,97684.00
2023-06-30T11:20:14.240Z,97680.00
2023-06-30T11:22:59.850Z,97675.00
2023-06-30T11:25:36.362Z,97676.00
2023-06-30T11:28:13.323Z,97682.00
2023-06-30T11:30:49.506Z,97678.00
2023-06-30T11:33:25.969Z,97684.00
2023-06-30T11:36:01.907Z,97669.00
2023-06-30T11:38:44.944Z,97677.00
2023-06-30T11:41:22.661Z,97672.00
2023-06-30T11:43:59.249Z,97676.00
2023-06-30T11:46:37.748Z,97680.00
2023-06-30T11:49:14.233Z,97674.00
2023-06-30T11:51:51.534Z,97675.00
2023-06-30T11:54:32.620Z,97675.00
2023-06-30T11:57:09.825Z,97672.00
2023-06-30T11:59:45.758Z,97679.00
2023-06-30T12:02:22.095Z,97669.00
2023-06-30T12:04:58.263Z,97673.00
2023-06-30T12:07:34.322Z,97668.00
2023-06-30T12:10:12.176Z,97672.00
2023-06-30T12:12:57.691Z,97665.00
2023-06-30T12:15:33.719Z,97672.00
2023-06-30T12:18:10.529Z,97667.00
2023-06-30T12:20:46.890Z,97672.00
2023-06-30T12:23:28.559Z,97675.00
2023-06-30T12:26:04.790Z,97667.00
2023-06-30T12:28:42.429Z,97673.00
2023-06-30T12:31:23.263Z,97678.00
2023-06-30T12:33:59.299Z,97673.00
2023-06-30T12:36:35.285Z,97675.00
2023-06-30T12:39:11.218Z,97669.00
2023-06-30T12:41:47.578Z,97680.00
2023-06-30T12:44:23.705Z,97670.00
2023-06-30T12:47:06.487Z,97669.00
2023-06-30T12:49:42.409Z,97665.00
2023-06-30T12:52:19.852Z,97667.00
2023-06-30T12:54:56.130Z,97674.00
2023-06-30T12:57:32.123Z,97674.00
2023-06-30T13:00:10.520Z,97667.00
2023-06-30T13:02:47.616Z,97668.00
2023-06-30T13:05:23.570Z,97666.00
2023-06-30T13:07:59.583Z,97674.00
2023-06-30T13:10:35.508Z,97661.00
2023-06-30T13:13:11.447Z,97661.00
2023-06-30T13:15:47.693Z,97661.00
2023-06-30T13:18:23.953Z,97659.00
2023-06-30T13:20:59.895Z,97657.00
2023-06-30T13:23:37.822Z,97647.00
2023-06-30T13:26:13.978Z,97651.00
2023-06-30T13:28:49.969Z,97639.00
2023-06-30T13:31:26.073Z,97642.00
2023-06-30T13:34:02.029Z,97635.00
2023-06-30T13:36:37.955Z,97634.00
2023-06-30T13:39:13.992Z,97621.00
2023-06-30T13:41:49.998Z,97627.00
2023-06-30T13:44:26.598Z,97624.00
2023-06-30T13:47:03.025Z,97629.00
2023-06-30T13:49:38.994Z,97625.00
2023-06-30T13:52:15.050Z,97613.00
2023-06-30T13:54:50.944Z,97607.00
2023-06-30T13:57:27.317Z,97610.00
2023-06-30T14:00:04.624Z,97613.00
2023-06-30T14:02:41.205Z,97608.00
2023-06-30T14:05:17.360Z,97605.00
2023-06-30T14:07:53.503Z,97616.00
2023-06-30T14:10:29.942Z,97615.00
2023-06-30T14:13:05.850Z,97619.00
2023-06-30T14:15:42.204Z,97624.00
2023-06-30T14:18:18.126Z,97628.00
2023-06-30T14:20:54.534Z,97616.00
2023-06-30T14:23:30.884Z,97613.00
2023-06-30T14:26:06.915Z,97609.00
2023-06-30T14:28:42.891Z,97616.00
2023-06-30T14:31:19.232Z,97606.00
2023-06-30T14:33:55.318Z,97611.00
2023-06-30T14:36:31.265Z,97610.00
2023-06-30T14:39:07.355Z,97607.00
2023-06-30T14:41:57.291Z,97613.00
2023-06-30T14:44:37.708Z,97597.00
2023-06-30T14:47:15.139Z,97603.00
2023-06-30T14:49:51.105Z,97600.00
2023-06-30T14:52:27.042Z,97606.00
2023-06-30T14:55:03.776Z,97605.00
2023-06-30T14:57:39.750Z,97603.00
2023-06-30T15:00:16.802Z,97604.00
2023-06-30T15:02:52.822Z,97607.00
2023-06-30T15:05:30.151Z,97604.00
2023-06-30T15:08:07.662Z,97597.00
2023-06-30T15:10:44.312Z,97596.00
2023-06-30T15:13:20.510Z,97602.00
2023-06-30T15:15:57.406Z,97599.00
2023-06-30T15:18:33.413Z,97590.00
2023-06-30T15:21:09.367Z,97601.00
2023-06-30T15:23:45.301Z,97603.00
2023-06-30T15:26:21.254Z,97599.00
2023-06-30T15:28:57.174Z,97602.00
2023-06-30T15:31:33.454Z,97602.00
2023-06-30T15:34:09.560Z,97599.00
2023-06-30T15:36:45.522Z,97597.00
2023-06-30T15:39:21.487Z,97599.00
2023-06-30T15:41:57.441Z,97610.00
2023-06-30T15:44:33.358Z,97596.00
2023-06-30T15:47:09.300Z,97590.00
2023-06-30T15:49:46.231Z,97598.00
2023-06-30T15:52:22.134Z,97586.00
2023-06-30T15:55:13.246Z,97585.00
2023-06-30T15:57:49.208Z,97581.00
2023-06-30T16:00:25.282Z,97590.00
2023-06-30T16:03:01.353Z,97584.00
2023-06-30T16:05:37.519Z,97586.00
2023-06-30T16:08:13.609Z,97588.00
2023-06-30T16:10:50.792Z,97582.00
2023-06-30T16:13:26.697Z,97581.00
2023-06-30T16:16:02.661Z,97582.00
2023-06-30T16:18:38.731Z,97580.00
2023-06-30T16:21:14.699Z,97575.00
2023-06-30T16:23:51.286Z,97578.00
2023-06-30T16:26:27.382Z,97571.00
2023-06-30T16:29:03.307Z,97576.00
2023-06-30T16:31:39.246Z,97574.00
2023-06-30T16:34:15.240Z,97564.00
2023-06-30T16:36:51.155Z,97568.00
2023-06-30T16:39:27.165Z,97573.00
2023-06-30T16:42:03.159Z,97572.00
2023-06-30T16:44:39.126Z,97575.00
2023-06-30T16:47:15.041Z,97578.00
2023-06-30T16:49:51.723Z,97569.00
2023-06-30T16:52:27.652Z,97575.00
2023-06-30T16:55:07.991Z,97580.00
2023-06-30T16:57:44.680Z,97575.00
2023-06-30T17:00:21.233Z,97574.00
2023-06-30T17:02:57.231Z,97583.00
2023-06-30T17:05:33.421Z,97575.00
2023-06-30T17:08:09.365Z,97579.00
2023-06-30T17:10:46.879Z,97584.00
2023-06-30T17:13:23.097Z,97577.00
2023-06-30T17:15:59.011Z,97579.00
2023-06-30T17:18:34.945Z,97579.00
2023-06-30T17:21:10.893Z,97586.00
2023-06-30T17:23:46.869Z,97592.00
2023-06-30T17:26:22.960Z,97590.00
2023-06-30T17:28:59.583Z,97585.00
2023-06-30T17:31:36.905Z,97585.00
2023-06-30T17:34:13.585Z,97584.00
2023-06-30T17:36:59.848Z,97585.00
2023-06-30T17:39:37.001Z,97587.00
2023-06-30T17:42:13.016Z,97587.00
2023-06-30T17:44:49.038Z,97590.00
2023-06-30T17:47:25.669Z,97582.00
2023-06-30T17:50:01.638Z,97585.00
2023-06-30T17:52:37.594Z,97583.00
2023-06-30T17:55:13.654Z,97591.00
2023-06-30T17:57:49.566Z,97587.00
2023-06-30T18:00:25.569Z,97587.00
2023-06-30T18:03:01.519Z,97592.00
2023-06-30T18:05:37.605Z,97591.00
2023-06-30T18:08:13.606Z,97597.00
2023-06-30T18:11:00.560Z,97592.00
2023-06-30T18:13:44.290Z,97587.00
2023-06-30T18:16:21.078Z,97593.00
2023-06-30T18:18:57.047Z,97595.00
2023-06-30T18:21:33.139Z,97594.00
2023-06-30T18:24:09.320Z,97589.00
2023-06-30T18:26:47.995Z,97596.00
2023-06-30T18:29:24.814Z,97598.00
2023-06-30T18:32:01.294Z,97603.00
2023-06-30T18:34:37.429Z,97602.00
2023-06-30T18:37:13.843Z,97609.00
2023-06-30T18:39:50.077Z,97608.00
2023-06-30T18:42:26.361Z,97608.00
2023-06-30T18:45:05.057Z,97620.00
2023-06-30T18:47:41.459Z,97619.00
2023-06-30T18:50:17.699Z,97623.00
2023-06-30T18:52:53.654Z,97620.00
2023-06-30T18:55:29.644Z,97617.00
2023-06-30T18:58:05.600Z,97624.00
2023-06-30T19:00:41.548Z,97616.00
2023-06-30T19:03:18.171Z,97623.00
2023-06-30T19:06:00.665Z,97635.00
2023-06-30T19:08:36.583Z,97628.00
2023-06-30T19:11:12.549Z,97633.00
2023-06-30T19:13:48.553Z,97632.00
2023-06-30T19:16:24.486Z,97637.00
2023-06-30T19:19:00.428Z,97635.00
2023-06-30T19:21:36.344Z,97643.00
2023-06-30T19:24:12.457Z,97642.00
2023-06-30T19:26:48.416Z,97648.00
2023-06-30T19:29:24.570Z,97651.00
2023-06-30T19:32:00.669Z,97650.00
2023-06-30T19:34:36.720Z,97653.00
2023-06-30T19:37:13.292Z,97651.00
2023-06-30T19:39:49.963Z,97651.00
2023-06-30T19:42:27.070Z,97657.00
2023-06-30T19:45:06.138Z,97665.00
2023-06-30T19:47:42.210Z,97660.00
2023-06-30T19:50:18.200Z,97662.00
2023-06-30T19:52:54.173Z,97664.00
2023-06-30T19:55:36.283Z,97666.00
2023-06-30T19:58:12.586Z,97664.00
2023-06-30T20:00:48.568Z,97671.00
2023-06-30T20:03:24.577Z,97665.00
2023-06-30T20:06:00.801Z,97668.00
2023-06-30T20:08:36.756Z,97671.00
2023-06-30T20:11:14.037Z,97670.00
2023-06-30T20:13:50.039Z,97672.00
2023-06-30T20:16:26.159Z,97673.00
2023-06-30T20:19:03.022Z,97671.00
2023-06-30T20:21:38.986Z,97670.00
2023-06-30T20:24:16.296Z,97674.00
2023-06-30T20:26:52.192Z,97669.00
2023-06-30T20:29:28.939Z,97674.00
2023-06-30T20:32:05.328Z,97666.00
2023-06-30T20:34:43.945Z,97670.00
2023-06-30T20:37:20.107Z,97666.00
2023-06-30T20:39:57.289Z,97663.00
2023-06-30T20:42:33.471Z,97668.00
2023-06-30T20:45:10.479Z,97670.00
2023-06-30T20:47:49.078Z,97657.00
2023-06-30T20:50:25.006Z,97666.00
2023-06-30T20:53:02.592Z,97665.00
2023-06-30T20:55:38.796Z,97666.00
2023-06-30T20:58:15.011Z,97669.00
2023-06-30T21:00:51.746Z,97669.00
2023-06-30T21:03:29.445Z,97668.00
2023-06-30T21:06:05.503Z,97671.00
2023-06-30T21:08:41.452Z,97667.00
2023-06-30T21:11:18.586Z,97661.00
2023-06-30T21:13:54.621Z,97663.00
2023-06-30T21:16:30.601Z,97661.00
2023-06-30T21:19:06.672Z,97668.00
2023-06-30T21:21:43.001Z,97672.00
2023-06-30T21:24:19.017Z,97659.00
2023-06-30T21:26:55.037Z,97664.00
2023-06-30T21:29:30.993Z,97661.00
2023-06-30T21:32:08.381Z,97663.00
2023-06-30T21:34:44.965Z,97659.00
2023-06-30T21:37:20.981Z,97663.00
2023-06-30T21:39:58.221Z,97649.00
2023-06-30T21:42:34.194Z,97664.00
2023-06-30T21:45:10.556Z,97655.00
2023-06-30T21:47:46.556Z,97658.00
2023-06-30T21:50:22.797Z,97661.00
2023-06-30T21:52:58.763Z,97662.00
2023-06-30T21:55:35.233Z,97660.00
2023-06-30T21:58:26.220Z,97657.00
2023-06-30T22:01:03.717Z,97655.00
2023-06-30T22:03:39.920Z,97657.00
2023-06-30T22:06:15.916Z,97662.00
2023-06-30T22:08:53.474Z,97651.00
2023-06-30T22:11:31.338Z,97654.00
2023-06-30T22:14:07.312Z,97654.00
2023-06-30T22:16:43.339Z,97656.00
2023-06-30T22:19:19.302Z,97664.00
2023-06-30T22:21:55.527Z,97651.00
2023-06-30T22:24:31.509Z,97649.00
2023-06-30T22:27:07.519Z,97644.00
2023-06-30T22:29:43.526Z,97652.00
2023-06-30T22:32:19.500Z,97653.00
2023-06-30T22:34:55.497Z,97648.00
2023-06-30T22:37:31.531Z,97654.00
2023-06-30T22:40:08.522Z,97655.00
2023-06-30T22:42:44.611Z,97649.00
2023-06-30T22:45:20.621Z,97655.00
2023-06-30T22:47:56.746Z,97650.00
2023-06-30T22:50:32.746Z,97651.00
2023-06-30T22:53:08.948Z,97658.00
2023-06-30T22:55:44.918Z,97654.00
2023-06-30T22:58:20.986Z,97663.00
2023-06-30T23:00:57.078Z,97653.00
2023-06-30T23:03:33.135Z,97652.00
2023-06-30T23:06:09.135Z,97654.00
2023-06-30T23:08:45.061Z,97653.00
2023-06-30T23:11:21.144Z,97643.00
2023-06-30T23:13:57.500Z,97645.00
2023-06-30T23:16:38.545Z,97651.00
2023-06-30T23:19:15.494Z,97651.00
2023-06-30T23:22:06.299Z,97644.00
2023-06-30T23:24:47.757Z,97648.00
2023-06-30T23:27:24.680Z,97653.00
2023-06-30T23:30:01.768Z,97645.00
2023-06-30T23:32:47.154Z,97648.00
2023-06-30T23:35:24.884Z,97644.00
2023-06-30T23:38:00.784Z,97647.00
2023-06-30T23:40:37.112Z,97654.00
2023-06-30T23:43:13.084Z,97661.00
2023-06-30T23:45:49.019Z,97665.00
2023-06-30T23:48:24.915Z,97664.00
2023-06-30T23:51:00.869Z,97655.00
2023-06-30T23:53:36.806Z,97663.00
2023-06-30T23:56:12.710Z,97659.00
2023-06-30T23:58:49.080Z,97662.00
